createdAt,value
2024-04-14T08:02:40.397Z,999.65
2024-04-14T08:12:47.894Z,999.63
2024-04-14T08:22:55.195Z,999.77
2024-04-14T08:33:02.623Z,999.83
2024-04-14T08:43:10.639Z,1000
2024-04-14T08:53:17.995Z,999.92
2024-04-14T09:03:25.470Z,1000.05
2024-04-14T09:13:33.218Z,999.93
2024-04-14T09:23:41.864Z,1000.13
2024-04-14T09:33:49.471Z,1000.18
2024-04-14T09:43:56.738Z,1000.12
2024-04-14T09:54:04.672Z,1000.25
2024-04-14T10:04:12.971Z,1000.38
2024-04-14T10:14:21.592Z,1000.41
2024-04-14T10:24:29.158Z,1000.31
2024-04-14T10:34:37.065Z,1000.33
2024-04-14T10:44:48.869Z,1000.42
2024-04-14T10:54:57.150Z,1000.36
2024-04-14T11:05:05.389Z,1000.33
2024-04-14T11:15:13.320Z,1000.36
2024-04-14T11:25:20.947Z,1000.27
2024-04-14T11:35:29.344Z,1000.17
2024-04-14T11:45:37.947Z,1000.27
2024-04-14T11:55:45.880Z,1000.22
2024-04-14T12:05:53.672Z,1000.4
2024-04-14T12:16:01.323Z,1000.27
2024-04-14T12:26:09.717Z,1000.29
2024-04-14T12:36:16.852Z,1000.1
2024-04-14T12:46:25.790Z,1000.02
2024-04-14T12:56:34.715Z,999.99
2024-04-14T13:06:41.365Z,999.83
2024-04-14T13:16:51.161Z,999.92
2024-04-14T13:26:59.816Z,999.56
2024-04-14T13:37:07.472Z,999.6
2024-04-14T13:47:15.679Z,999.48
2024-04-14T13:57:23.550Z,999.35
2024-04-14T14:07:31.532Z,999.21
2024-04-14T14:17:40.135Z,999.12
2024-04-14T14:27:48.492Z,999.04
2024-04-14T14:37:56.573Z,999.1
2024-04-14T14:48:10.988Z,999.05
2024-04-14T14:58:18.924Z,998.9
2024-04-14T15:08:26.810Z,998.87
2024-04-14T15:18:34.617Z,998.79
2024-04-14T15:28:42.255Z,998.7
2024-04-14T15:38:50.602Z,998.64
2024-04-14T15:48:58.072Z,998.66
2024-04-14T15:59:06.070Z,998.67
2024-04-14T16:09:14.130Z,998.59
2024-04-14T16:19:21.237Z,998.7
2024-04-14T16:29:27.508Z,998.74
2024-04-14T16:39:32.920Z,998.64
2024-04-14T16:49:39.279Z,998.49
2024-04-14T16:59:45.572Z,998.54
2024-04-14T17:09:52.510Z,998.53
2024-04-14T17:19:59.559Z,998.51
2024-04-14T17:30:06.299Z,998.49
2024-04-14T17:40:13.393Z,998.49
2024-04-14T17:50:20.866Z,998.42
2024-04-14T18:00:27.752Z,998.4
2024-04-14T18:10:34.793Z,998.33
2024-04-14T18:20:47.952Z,998.3
2024-04-14T18:30:55.373Z,998.36
2024-04-14T18:41:02.231Z,998.3
2024-04-14T18:51:08.959Z,998.27
2024-04-14T19:01:16.181Z,998.32
2024-04-14T19:11:23.755Z,998.19
2024-04-14T19:21:31.330Z,998.03
2024-04-14T19:31:38.975Z,997.95
2024-04-14T19:41:46.339Z,997.91
2024-04-14T19:51:53.439Z,997.8
2024-04-14T20:02:01.553Z,997.79
2024-04-14T20:12:09.194Z,997.68
2024-04-14T20:22:16.913Z,997.61
2024-04-14T20:32:24.661Z,997.47
2024-04-14T20:42:31.903Z,997.39
2024-04-14T20:52:38.958Z,997.25
2024-04-14T21:02:46.452Z,997.15
2024-04-14T21:12:53.680Z,997.18
2024-04-14T21:23:01.682Z,996.98
2024-04-14T21:33:09.067Z,996.85
2024-04-14T21:43:16.926Z,996.82
2024-04-14T21:53:24.153Z,996.73
